OTHH Airport Information

Runway Information
Airport Frequencies
Airport Navaids
Airport Weather Information & NOTAM
ADDS - METARS form results

(1454 UTC 22 July 2018)
 
METAR text: OTHH 221400Z 35018KT CAVOK 38/16 Q0995 NOSIG
Conditions at: OTHH (DOHA HAMAD INTL , QA) observed 1400 UTC 22 July 2018
Temperature: 38.0°C (100°F)
Dewpoint: 16.0°C (61°F) [RH = 27%]
Pressure (altimeter): 29.38 inches Hg (995.0 mb)
Winds: from the N (350 degrees) at 21 MPH (18 knots; 9.4 m/s)
Visibility: 6 or more miles (10+ km)
Ceiling: ceiling and visibility are OK
Clouds: unknown
Weather: no significant weather observed at this time